DK-0020 weather

Frederikssund Syd Flyveplads
Capital Region, Denmark

Public forecast

Using degrees Celsius for public forecast. Weather courtesy of forecast.io.

Closest aviation weather report (METAR) to Frederikssund Syd Flyveplads

Closest report is Copenhagen Roskilde Airport, 13.9 nm (25.7 km) S. Retrieved 2020/02/24 17:50 UTC (24 minutes ago):

EKRK 241750Z AUTO 15005KT 9999 OVC075/// 04/02 Q1004

Closest aviation forecast (TAF) to Frederikssund Syd Flyveplads

Closest forecast is Copenhagen Kastrup Airport, 22.7 nm (42.1 km) ESE. Retrieved 2020/02/24 18:09 UTC (5 minutes ago):

TAF EKCH 241704Z 2418/2518 22012KT 9999 SCT020 BECMG 2419/2421 15020KT 4000 -RADZ BKN005 TEMPO 2421/2502 15022G35KT 2000 RASN BKN004 BECMG 2502/2504 24015KT 9999 NSW BKN020 TEMPO 2504/2515 24022G34KT SHRA SCT020CB TEMPO 2515/2518 25030G45KT SHRA BKN012 SCT020CB